sensor_id;sensor_type;location;lat;lon;timestamp;temperature;humidity
19168;DHT22;9716;53.114;18.040;2022-07-29T00:02:26;18.10;99.90
19168;DHT22;9716;53.114;18.040;2022-07-29T00:04:56;18.00;99.90
19168;DHT22;9716;53.114;18.040;2022-07-29T00:07:25;18.00;99.90
19168;DHT22;9716;53.114;18.040;2022-07-29T00:09:54;18.00;99.90
19168;DHT22;9716;53.114;18.040;2022-07-29T00:12:23;18.00;99.90
19168;DHT22;9716;53.114;18.040;2022-07-29T00:14:54;18.00;99.90
19168;DHT22;9716;53.114;18.040;2022-07-29T00:17:23;17.90;99.90
19168;DHT22;9716;53.114;18.040;2022-07-29T00:19:52;17.90;99.90
19168;DHT22;9716;53.114;18.040;2022-07-29T00:22:22;17.90;99.90
19168;DHT22;9716;53.114;18.040;2022-07-29T00:24:51;17.90;99.90
19168;DHT22;9716;53.114;18.040;2022-07-29T00:27:20;17.90;99.90
19168;DHT22;9716;53.114;18.040;2022-07-29T00:29:49;17.80;99.90
19168;DHT22;9716;53.114;18.040;2022-07-29T00:32:17;17.80;99.90
19168;DHT22;9716;53.114;18.040;2022-07-29T00:34:46;17.80;99.90
19168;DHT22;9716;53.114;18.040;2022-07-29T00:37:34;17.80;99.90
19168;DHT22;9716;53.114;18.040;2022-07-29T00:40:03;17.80;99.90
19168;DHT22;9716;53.114;18.040;2022-07-29T00:42:41;17.70;99.90
19168;DHT22;9716;53.114;18.040;2022-07-29T00:45:10;17.70;99.90
19168;DHT22;9716;53.114;18.040;2022-07-29T00:47:39;17.70;99.90
19168;DHT22;9716;53.114;18.040;2022-07-29T00:50:10;17.60;99.90
19168;DHT22;9716;53.114;18.040;2022-07-29T00:52:41;17.60;99.90
19168;DHT22;9716;53.114;18.040;2022-07-29T00:55:11;17.60;99.90
19168;DHT22;9716;53.114;18.040;2022-07-29T00:57:42;17.60;99.90
19168;DHT22;9716;53.114;18.040;2022-07-29T01:00:15;17.50;99.90
19168;DHT22;9716;53.114;18.040;2022-07-29T01:02:46;17.50;99.90
19168;DHT22;9716;53.114;18.040;2022-07-29T01:05:18;17.50;99.90
19168;DHT22;9716;53.114;18.040;2022-07-29T01:07:52;17.50;99.90
19168;DHT22;9716;53.114;18.040;2022-07-29T01:10:21;17.40;99.90
19168;DHT22;9716;53.114;18.040;2022-07-29T01:12:51;17.40;99.90
19168;DHT22;9716;53.114;18.040;2022-07-29T01:15:21;17.30;99.90
19168;DHT22;9716;53.114;18.040;2022-07-29T01:17:55;17.30;99.90
19168;DHT22;9716;53.114;18.040;2022-07-29T01:20:31;17.30;99.90
19168;DHT22;9716;53.114;18.040;2022-07-29T01:23:33;17.30;99.90
19168;DHT22;9716;53.114;18.040;2022-07-29T01:26:27;17.20;99.90
19168;DHT22;9716;53.114;18.040;2022-07-29T01:29:11;17.20;99.90
19168;DHT22;9716;53.114;18.040;2022-07-29T01:31:47;17.20;99.90
19168;DHT22;9716;53.114;18.040;2022-07-29T01:34:31;17.10;99.90
19168;DHT22;9716;53.114;18.040;2022-07-29T01:37:08;17.10;99.90
19168;DHT22;9716;53.114;18.040;2022-07-29T01:39:41;17.10;99.90
19168;DHT22;9716;53.114;18.040;2022-07-29T01:42:15;17.10;99.90
19168;DHT22;9716;53.114;18.040;2022-07-29T01:44:55;17.00;99.90
19168;DHT22;9716;53.114;18.040;2022-07-29T01:47:31;17.00;99.90
19168;DHT22;9716;53.114;18.040;2022-07-29T01:50:06;17.00;99.90
19168;DHT22;9716;53.114;18.040;2022-07-29T01:52:39;17.00;99.90
19168;DHT22;9716;53.114;18.040;2022-07-29T01:55:13;17.00;99.90
19168;DHT22;9716;53.114;18.040;2022-07-29T01:57:45;16.90;99.90
19168;DHT22;9716;53.114;18.040;2022-07-29T02:00:17;16.90;99.90
19168;DHT22;9716;53.114;18.040;2022-07-29T02:02:47;16.90;99.90
19168;DHT22;9716;53.114;18.040;2022-07-29T02:05:18;16.80;99.90
19168;DHT22;9716;53.114;18.040;2022-07-29T02:07:49;16.80;99.90
19168;DHT22;9716;53.114;18.040;2022-07-29T02:10:21;16.80;99.90
19168;DHT22;9716;53.114;18.040;2022-07-29T02:12:54;16.80;99.90
19168;DHT22;9716;53.114;18.040;2022-07-29T02:15:24;16.80;99.90
19168;DHT22;9716;53.114;18.040;2022-07-29T02:17:58;16.80;99.90
19168;DHT22;9716;53.114;18.040;2022-07-29T02:20:28;16.80;99.90
19168;DHT22;9716;53.114;18.040;2022-07-29T02:22:59;16.70;99.90
19168;DHT22;9716;53.114;18.040;2022-07-29T02:25:29;16.70;99.90
19168;DHT22;9716;53.114;18.040;2022-07-29T02:28:05;16.70;99.90
19168;DHT22;9716;53.114;18.040;2022-07-29T02:30:40;16.70;99.90
19168;DHT22;9716;53.114;18.040;2022-07-29T02:33:13;16.70;99.90
19168;DHT22;9716;53.114;18.040;2022-07-29T02:35:43;16.60;99.90
19168;DHT22;9716;53.114;18.040;2022-07-29T02:38:15;16.60;99.90
19168;DHT22;9716;53.114;18.040;2022-07-29T02:41:04;16.60;99.90
19168;DHT22;9716;53.114;18.040;2022-07-29T02:43:34;16.60;99.90
19168;DHT22;9716;53.114;18.040;2022-07-29T02:46:08;16.60;99.90
19168;DHT22;9716;53.114;18.040;2022-07-29T02:48:58;16.60;99.90
19168;DHT22;9716;53.114;18.040;2022-07-29T02:51:35;16.50;99.90
19168;DHT22;9716;53.114;18.040;2022-07-29T02:54:18;16.50;99.90
19168;DHT22;9716;53.114;18.040;2022-07-29T02:56:48;16.50;99.90
19168;DHT22;9716;53.114;18.040;2022-07-29T02:59:23;16.50;99.90
19168;DHT22;9716;53.114;18.040;2022-07-29T03:01:55;16.50;99.90
19168;DHT22;9716;53.114;18.040;2022-07-29T03:04:27;16.50;99.90
19168;DHT22;9716;53.114;18.040;2022-07-29T03:06:58;16.50;99.90
19168;DHT22;9716;53.114;18.040;2022-07-29T03:09:27;16.50;99.90
19168;DHT22;9716;53.114;18.040;2022-07-29T03:11:57;16.50;99.90
19168;DHT22;9716;53.114;18.040;2022-07-29T03:14:26;16.50;99.90
19168;DHT22;9716;53.114;18.040;2022-07-29T03:16:57;16.50;99.90
19168;DHT22;9716;53.114;18.040;2022-07-29T03:19:27;16.50;99.90
19168;DHT22;9716;53.114;18.040;2022-07-29T03:21:56;16.50;99.90
19168;DHT22;9716;53.114;18.040;2022-07-29T03:24:30;16.50;99.90
19168;DHT22;9716;53.114;18.040;2022-07-29T03:27:00;16.50;99.90
19168;DHT22;9716;53.114;18.040;2022-07-29T03:29:29;16.60;99.90
19168;DHT22;9716;53.114;18.040;2022-07-29T03:32:04;16.60;99.90
19168;DHT22;9716;53.114;18.040;2022-07-29T03:34:35;16.70;99.90
19168;DHT22;9716;53.114;18.040;2022-07-29T03:37:05;16.70;99.90
19168;DHT22;9716;53.114;18.040;2022-07-29T03:39:38;16.80;99.90
19168;DHT22;9716;53.114;18.040;2022-07-29T03:42:10;16.80;99.90
19168;DHT22;9716;53.114;18.040;2022-07-29T03:44:42;16.90;99.90
19168;DHT22;9716;53.114;18.040;2022-07-29T03:47:15;16.90;99.90
19168;DHT22;9716;53.114;18.040;2022-07-29T03:49:49;16.90;99.90
19168;DHT22;9716;53.114;18.040;2022-07-29T03:52:19;17.10;99.90
19168;DHT22;9716;53.114;18.040;2022-07-29T03:54:48;17.10;99.90
19168;DHT22;9716;53.114;18.040;2022-07-29T03:57:19;17.20;99.90
19168;DHT22;9716;53.114;18.040;2022-07-29T03:59:50;17.30;99.90
19168;DHT22;9716;53.114;18.040;2022-07-29T04:02:21;17.40;99.90
19168;DHT22;9716;53.114;18.040;2022-07-29T04:04:56;17.60;99.90
19168;DHT22;9716;53.114;18.040;2022-07-29T04:07:25;17.70;99.90
19168;DHT22;9716;53.114;18.040;2022-07-29T04:09:54;17.80;99.90
19168;DHT22;9716;53.114;18.040;2022-07-29T04:12:22;18.00;99.90
19168;DHT22;9716;53.114;18.040;2022-07-29T04:14:51;18.10;99.90
19168;DHT22;9716;53.114;18.040;2022-07-29T04:17:23;18.30;99.90
19168;DHT22;9716;53.114;18.040;2022-07-29T04:19:51;18.60;99.90
19168;DHT22;9716;53.114;18.040;2022-07-29T04:22:20;18.80;99.90
19168;DHT22;9716;53.114;18.040;2022-07-29T04:24:49;19.00;99.90
19168;DHT22;9716;53.114;18.040;2022-07-29T04:27:18;19.10;99.90
19168;DHT22;9716;53.114;18.040;2022-07-29T04:29:47;19.30;99.90
19168;DHT22;9716;53.114;18.040;2022-07-29T04:32:25;19.40;99.90
19168;DHT22;9716;53.114;18.040;2022-07-29T04:34:54;19.60;99.90
19168;DHT22;9716;53.114;18.040;2022-07-29T04:37:23;19.70;99.90
19168;DHT22;9716;53.114;18.040;2022-07-29T04:39:52;19.90;99.90
19168;DHT22;9716;53.114;18.040;2022-07-29T04:42:21;20.00;99.90
19168;DHT22;9716;53.114;18.040;2022-07-29T04:44:54;20.20;99.90
19168;DHT22;9716;53.114;18.040;2022-07-29T04:47:22;20.40;99.90
19168;DHT22;9716;53.114;18.040;2022-07-29T04:49:52;20.50;99.90
19168;DHT22;9716;53.114;18.040;2022-07-29T04:52:21;20.60;99.90
19168;DHT22;9716;53.114;18.040;2022-07-29T04:54:50;20.50;99.90
19168;DHT22;9716;53.114;18.040;2022-07-29T04:57:19;20.60;99.90
19168;DHT22;9716;53.114;18.040;2022-07-29T04:59:48;20.50;99.90
19168;DHT22;9716;53.114;18.040;2022-07-29T05:02:16;20.50;99.90
19168;DHT22;9716;53.114;18.040;2022-07-29T05:04:45;20.50;99.90
19168;DHT22;9716;53.114;18.040;2022-07-29T05:07:15;20.60;99.90
19168;DHT22;9716;53.114;18.040;2022-07-29T05:09:44;20.70;99.90
19168;DHT22;9716;53.114;18.040;2022-07-29T05:12:12;20.80;99.90
19168;DHT22;9716;53.114;18.040;2022-07-29T05:14:41;20.90;99.90
19168;DHT22;9716;53.114;18.040;2022-07-29T05:17:10;21.00;99.90
19168;DHT22;9716;53.114;18.040;2022-07-29T05:19:38;21.00;99.90
19168;DHT22;9716;53.114;18.040;2022-07-29T05:22:07;21.00;99.90
19168;DHT22;9716;53.114;18.040;2022-07-29T05:24:37;20.90;99.90
19168;DHT22;9716;53.114;18.040;2022-07-29T05:27:06;20.80;99.90
19168;DHT22;9716;53.114;18.040;2022-07-29T05:29:35;20.60;99.90
19168;DHT22;9716;53.114;18.040;2022-07-29T05:32:11;20.60;99.90
19168;DHT22;9716;53.114;18.040;2022-07-29T05:34:40;20.70;99.90
19168;DHT22;9716;53.114;18.040;2022-07-29T05:37:16;21.00;99.90
19168;DHT22;9716;53.114;18.040;2022-07-29T05:39:46;21.40;99.90
19168;DHT22;9716;53.114;18.040;2022-07-29T05:42:23;21.80;99.90
19168;DHT22;9716;53.114;18.040;2022-07-29T05:44:52;22.10;99.90
19168;DHT22;9716;53.114;18.040;2022-07-29T05:47:21;22.30;99.90
19168;DHT22;9716;53.114;18.040;2022-07-29T05:49:50;22.50;99.90
19168;DHT22;9716;53.114;18.040;2022-07-29T05:52:20;22.70;99.90
19168;DHT22;9716;53.114;18.040;2022-07-29T05:54:50;22.80;99.90
19168;DHT22;9716;53.114;18.040;2022-07-29T05:57:20;23.00;99.90
19168;DHT22;9716;53.114;18.040;2022-07-29T05:59:50;23.20;99.90
19168;DHT22;9716;53.114;18.040;2022-07-29T06:02:19;23.40;99.90
19168;DHT22;9716;53.114;18.040;2022-07-29T06:04:48;23.70;99.90
19168;DHT22;9716;53.114;18.040;2022-07-29T06:07:17;24.00;99.90
19168;DHT22;9716;53.114;18.040;2022-07-29T06:09:45;24.30;99.90
19168;DHT22;9716;53.114;18.040;2022-07-29T06:12:15;24.50;99.70
19168;DHT22;9716;53.114;18.040;2022-07-29T06:14:44;24.80;98.50
19168;DHT22;9716;53.114;18.040;2022-07-29T06:17:18;25.00;97.80
19168;DHT22;9716;53.114;18.040;2022-07-29T06:19:46;25.20;97.00
19168;DHT22;9716;53.114;18.040;2022-07-29T06:22:15;25.30;96.40
19168;DHT22;9716;53.114;18.040;2022-07-29T06:24:44;25.40;95.80
19168;DHT22;9716;53.114;18.040;2022-07-29T06:27:14;25.50;95.20
19168;DHT22;9716;53.114;18.040;2022-07-29T06:29:43;25.70;94.70
19168;DHT22;9716;53.114;18.040;2022-07-29T06:32:12;25.80;94.10
19168;DHT22;9716;53.114;18.040;2022-07-29T06:34:41;25.70;94.30
19168;DHT22;9716;53.114;18.040;2022-07-29T06:37:15;25.70;93.80
19168;DHT22;9716;53.114;18.040;2022-07-29T06:39:45;25.80;93.60
19168;DHT22;9716;53.114;18.040;2022-07-29T06:42:15;26.00;93.20
19168;DHT22;9716;53.114;18.040;2022-07-29T06:44:44;26.30;92.60
19168;DHT22;9716;53.114;18.040;2022-07-29T06:47:13;26.50;91.90
19168;DHT22;9716;53.114;18.040;2022-07-29T06:49:41;26.70;91.40
19168;DHT22;9716;53.114;18.040;2022-07-29T06:52:10;26.70;91.00
19168;DHT22;9716;53.114;18.040;2022-07-29T06:54:39;26.90;90.70
19168;DHT22;9716;53.114;18.040;2022-07-29T06:57:16;27.00;90.30
19168;DHT22;9716;53.114;18.040;2022-07-29T06:59:44;27.10;90.10
19168;DHT22;9716;53.114;18.040;2022-07-29T07:02:13;27.20;89.40
19168;DHT22;9716;53.114;18.040;2022-07-29T07:04:43;27.40;88.40
19168;DHT22;9716;53.114;18.040;2022-07-29T07:07:11;27.60;87.60
19168;DHT22;9716;53.114;18.040;2022-07-29T07:09:40;27.90;86.60
19168;DHT22;9716;53.114;18.040;2022-07-29T07:12:09;28.20;85.00
19168;DHT22;9716;53.114;18.040;2022-07-29T07:14:38;28.40;83.80
19168;DHT22;9716;53.114;18.040;2022-07-29T07:17:08;28.50;82.60
19168;DHT22;9716;53.114;18.040;2022-07-29T07:19:36;28.40;82.20
19168;DHT22;9716;53.114;18.040;2022-07-29T07:22:05;28.40;81.60
19168;DHT22;9716;53.114;18.040;2022-07-29T07:24:34;28.50;81.40
19168;DHT22;9716;53.114;18.040;2022-07-29T07:27:03;28.60;81.10
19168;DHT22;9716;53.114;18.040;2022-07-29T07:29:31;28.90;80.50
19168;DHT22;9716;53.114;18.040;2022-07-29T07:32:02;29.10;79.70
19168;DHT22;9716;53.114;18.040;2022-07-29T07:34:31;29.20;78.50
19168;DHT22;9716;53.114;18.040;2022-07-29T07:37:00;29.30;77.70
19168;DHT22;9716;53.114;18.040;2022-07-29T07:39:29;29.20;77.60
19168;DHT22;9716;53.114;18.040;2022-07-29T07:41:58;29.30;77.00
19168;DHT22;9716;53.114;18.040;2022-07-29T07:44:26;29.40;76.60
19168;DHT22;9716;53.114;18.040;2022-07-29T07:46:55;29.50;75.50
19168;DHT22;9716;53.114;18.040;2022-07-29T07:49:31;29.50;75.00
19168;DHT22;9716;53.114;18.040;2022-07-29T07:52:00;29.50;75.10
19168;DHT22;9716;53.114;18.040;2022-07-29T07:54:29;29.70;74.60
19168;DHT22;9716;53.114;18.040;2022-07-29T07:56:58;29.70;73.90
19168;DHT22;9716;53.114;18.040;2022-07-29T07:59:27;29.80;73.40
19168;DHT22;9716;53.114;18.040;2022-07-29T08:01:56;29.70;73.50
19168;DHT22;9716;53.114;18.040;2022-07-29T08:04:25;29.70;73.40
19168;DHT22;9716;53.114;18.040;2022-07-29T08:06:57;29.80;73.20
19168;DHT22;9716;53.114;18.040;2022-07-29T08:09:27;29.90;72.90
19168;DHT22;9716;53.114;18.040;2022-07-29T08:11:57;30.00;72.70
19168;DHT22;9716;53.114;18.040;2022-07-29T08:14:26;30.10;72.30
19168;DHT22;9716;53.114;18.040;2022-07-29T08:16:54;30.20;72.30
19168;DHT22;9716;53.114;18.040;2022-07-29T08:19:23;30.30;72.10
19168;DHT22;9716;53.114;18.040;2022-07-29T08:21:52;30.30;71.90
19168;DHT22;9716;53.114;18.040;2022-07-29T08:24:23;30.40;71.60
19168;DHT22;9716;53.114;18.040;2022-07-29T08:27:09;30.50;71.40
19168;DHT22;9716;53.114;18.040;2022-07-29T08:29:58;30.70;70.80
19168;DHT22;9716;53.114;18.040;2022-07-29T08:32:26;31.00;68.80
19168;DHT22;9716;53.114;18.040;2022-07-29T08:35:16;31.00;68.40
19168;DHT22;9716;53.114;18.040;2022-07-29T08:37:44;30.90;68.10
19168;DHT22;9716;53.114;18.040;2022-07-29T08:40:14;30.80;68.40
19168;DHT22;9716;53.114;18.040;2022-07-29T08:42:43;30.60;68.20
19168;DHT22;9716;53.114;18.040;2022-07-29T08:45:12;30.40;68.50
19168;DHT22;9716;53.114;18.040;2022-07-29T08:47:41;30.30;68.70
19168;DHT22;9716;53.114;18.040;2022-07-29T08:50:10;30.40;68.80
19168;DHT22;9716;53.114;18.040;2022-07-29T08:52:40;30.50;67.70
19168;DHT22;9716;53.114;18.040;2022-07-29T08:55:10;30.50;67.70
19168;DHT22;9716;53.114;18.040;2022-07-29T08:57:40;30.30;67.90
19168;DHT22;9716;53.114;18.040;2022-07-29T09:00:21;30.00;68.30
19168;DHT22;9716;53.114;18.040;2022-07-29T09:02:56;29.80;68.90
19168;DHT22;9716;53.114;18.040;2022-07-29T09:05:26;29.80;68.80
19168;DHT22;9716;53.114;18.040;2022-07-29T09:07:56;29.80;68.60
19168;DHT22;9716;53.114;18.040;2022-07-29T09:10:24;29.70;68.30
19168;DHT22;9716;53.114;18.040;2022-07-29T09:12:55;29.70;68.30
19168;DHT22;9716;53.114;18.040;2022-07-29T09:15:24;29.70;68.10
19168;DHT22;9716;53.114;18.040;2022-07-29T09:17:53;29.70;68.00
19168;DHT22;9716;53.114;18.040;2022-07-29T09:20:22;29.80;68.00
19168;DHT22;9716;53.114;18.040;2022-07-29T09:22:52;29.80;67.80
19168;DHT22;9716;53.114;18.040;2022-07-29T09:25:33;29.80;68.00
19168;DHT22;9716;53.114;18.040;2022-07-29T09:28:07;29.80;66.50
19168;DHT22;9716;53.114;18.040;2022-07-29T09:30:50;29.80;66.00
19168;DHT22;9716;53.114;18.040;2022-07-29T09:33:20;29.50;65.50
19168;DHT22;9716;53.114;18.040;2022-07-29T09:35:59;29.30;65.90
19168;DHT22;9716;53.114;18.040;2022-07-29T09:38:30;29.20;66.30
19168;DHT22;9716;53.114;18.040;2022-07-29T09:41:02;29.10;65.90
19168;DHT22;9716;53.114;18.040;2022-07-29T09:43:34;29.10;65.90
19168;DHT22;9716;53.114;18.040;2022-07-29T09:46:10;29.00;65.60
19168;DHT22;9716;53.114;18.040;2022-07-29T09:48:39;29.10;65.20
19168;DHT22;9716;53.114;18.040;2022-07-29T09:51:17;29.00;65.40
19168;DHT22;9716;53.114;18.040;2022-07-29T09:53:52;28.80;65.50
19168;DHT22;9716;53.114;18.040;2022-07-29T09:56:38;28.60;65.90
19168;DHT22;9716;53.114;18.040;2022-07-29T09:59:09;28.50;66.60
19168;DHT22;9716;53.114;18.040;2022-07-29T10:01:38;28.30;66.70
19168;DHT22;9716;53.114;18.040;2022-07-29T10:04:06;28.20;66.90
19168;DHT22;9716;53.114;18.040;2022-07-29T10:09:30;28.00;66.70
19168;DHT22;9716;53.114;18.040;2022-07-29T10:12:07;27.90;66.90
19168;DHT22;9716;53.114;18.040;2022-07-29T10:14:37;27.90;66.70
19168;DHT22;9716;53.114;18.040;2022-07-29T10:17:08;27.70;66.80
19168;DHT22;9716;53.114;18.040;2022-07-29T10:19:38;27.60;67.00
19168;DHT22;9716;53.114;18.040;2022-07-29T10:22:08;27.60;66.70
19168;DHT22;9716;53.114;18.040;2022-07-29T10:24:38;27.50;66.60
19168;DHT22;9716;53.114;18.040;2022-07-29T10:27:08;27.50;66.70
19168;DHT22;9716;53.114;18.040;2022-07-29T10:29:38;27.40;66.20
19168;DHT22;9716;53.114;18.040;2022-07-29T10:32:33;27.50;66.30
19168;DHT22;9716;53.114;18.040;2022-07-29T10:35:15;27.50;66.00
19168;DHT22;9716;53.114;18.040;2022-07-29T10:38:30;27.40;65.50
19168;DHT22;9716;53.114;18.040;2022-07-29T10:41:10;27.30;65.50
19168;DHT22;9716;53.114;18.040;2022-07-29T10:44:14;27.40;65.30
19168;DHT22;9716;53.114;18.040;2022-07-29T10:46:47;27.40;65.40
19168;DHT22;9716;53.114;18.040;2022-07-29T10:49:17;27.50;64.60
19168;DHT22;9716;53.114;18.040;2022-07-29T10:51:56;27.40;64.40
19168;DHT22;9716;53.114;18.040;2022-07-29T10:54:42;27.40;64.50
19168;DHT22;9716;53.114;18.040;2022-07-29T10:57:17;27.50;64.50
19168;DHT22;9716;53.114;18.040;2022-07-29T11:00:28;27.50;64.40
19168;DHT22;9716;53.114;18.040;2022-07-29T11:02:59;27.50;63.80
19168;DHT22;9716;53.114;18.040;2022-07-29T11:06:01;27.50;63.90
19168;DHT22;9716;53.114;18.040;2022-07-29T11:08:35;27.50;63.70
19168;DHT22;9716;53.114;18.040;2022-07-29T11:11:36;27.40;63.80
19168;DHT22;9716;53.114;18.040;2022-07-29T11:14:55;27.40;62.80
19168;DHT22;9716;53.114;18.040;2022-07-29T11:17:24;27.40;63.30
19168;DHT22;9716;53.114;18.040;2022-07-29T11:20:32;27.30;62.70
19168;DHT22;9716;53.114;18.040;2022-07-29T11:23:28;27.30;62.20
19168;DHT22;9716;53.114;18.040;2022-07-29T11:26:17;27.20;62.60
19168;DHT22;9716;53.114;18.040;2022-07-29T11:29:01;27.20;63.00
19168;DHT22;9716;53.114;18.040;2022-07-29T11:31:38;27.20;63.40
19168;DHT22;9716;53.114;18.040;2022-07-29T11:34:19;27.10;63.50
19168;DHT22;9716;53.114;18.040;2022-07-29T11:37:17;27.10;63.70
19168;DHT22;9716;53.114;18.040;2022-07-29T11:40:15;27.10;64.10
19168;DHT22;9716;53.114;18.040;2022-07-29T11:42:45;27.00;64.20
19168;DHT22;9716;53.114;18.040;2022-07-29T11:45:20;26.90;64.40
19168;DHT22;9716;53.114;18.040;2022-07-29T11:48:15;26.90;64.30
19168;DHT22;9716;53.114;18.040;2022-07-29T11:50:59;26.90;64.30
19168;DHT22;9716;53.114;18.040;2022-07-29T11:53:30;26.80;64.30
19168;DHT22;9716;53.114;18.040;2022-07-29T11:56:00;26.80;64.20
19168;DHT22;9716;53.114;18.040;2022-07-29T11:58:30;26.70;64.30
19168;DHT22;9716;53.114;18.040;2022-07-29T12:01:00;26.80;64.30
19168;DHT22;9716;53.114;18.040;2022-07-29T12:03:31;26.90;64.40
19168;DHT22;9716;53.114;18.040;2022-07-29T12:06:11;27.00;63.30
19168;DHT22;9716;53.114;18.040;2022-07-29T12:08:46;27.10;62.30
19168;DHT22;9716;53.114;18.040;2022-07-29T12:11:16;27.10;62.30
19168;DHT22;9716;53.114;18.040;2022-07-29T12:13:48;27.10;62.20
19168;DHT22;9716;53.114;18.040;2022-07-29T12:16:18;27.10;62.20
19168;DHT22;9716;53.114;18.040;2022-07-29T12:18:57;27.20;62.60
19168;DHT22;9716;53.114;18.040;2022-07-29T12:21:26;27.40;62.30
19168;DHT22;9716;53.114;18.040;2022-07-29T12:23:57;27.50;62.00
19168;DHT22;9716;53.114;18.040;2022-07-29T12:26:35;27.50;62.00
19168;DHT22;9716;53.114;18.040;2022-07-29T12:29:06;27.50;62.00
19168;DHT22;9716;53.114;18.040;2022-07-29T12:31:46;27.50;61.60
19168;DHT22;9716;53.114;18.040;2022-07-29T12:34:26;27.50;61.40
19168;DHT22;9716;53.114;18.040;2022-07-29T12:36:56;27.50;61.20
19168;DHT22;9716;53.114;18.040;2022-07-29T12:39:27;27.40;60.90
19168;DHT22;9716;53.114;18.040;2022-07-29T12:41:56;27.40;60.90
19168;DHT22;9716;53.114;18.040;2022-07-29T12:44:44;27.30;61.00
19168;DHT22;9716;53.114;18.040;2022-07-29T12:47:13;27.30;61.00
19168;DHT22;9716;53.114;18.040;2022-07-29T12:49:42;27.30;61.30
19168;DHT22;9716;53.114;18.040;2022-07-29T12:52:25;27.30;61.90
19168;DHT22;9716;53.114;18.040;2022-07-29T12:54:55;27.30;61.50
19168;DHT22;9716;53.114;18.040;2022-07-29T12:57:27;27.40;60.90
19168;DHT22;9716;53.114;18.040;2022-07-29T13:00:07;27.40;60.70
19168;DHT22;9716;53.114;18.040;2022-07-29T13:02:37;27.50;61.00
19168;DHT22;9716;53.114;18.040;2022-07-29T13:05:08;27.50;61.10
19168;DHT22;9716;53.114;18.040;2022-07-29T13:07:37;27.50;61.00
19168;DHT22;9716;53.114;18.040;2022-07-29T13:10:25;27.60;60.80
19168;DHT22;9716;53.114;18.040;2022-07-29T13:13:04;27.60;60.20
19168;DHT22;9716;53.114;18.040;2022-07-29T13:15:34;27.60;60.20
19168;DHT22;9716;53.114;18.040;2022-07-29T13:18:03;27.60;59.90
19168;DHT22;9716;53.114;18.040;2022-07-29T13:20:32;27.60;59.60
19168;DHT22;9716;53.114;18.040;2022-07-29T13:23:01;27.60;59.90
19168;DHT22;9716;53.114;18.040;2022-07-29T13:25:32;27.40;60.10
19168;DHT22;9716;53.114;18.040;2022-07-29T13:28:01;27.30;60.30
19168;DHT22;9716;53.114;18.040;2022-07-29T13:30:30;27.20;60.20
19168;DHT22;9716;53.114;18.040;2022-07-29T13:32:58;27.10;60.20
19168;DHT22;9716;53.114;18.040;2022-07-29T13:35:27;27.00;60.20
19168;DHT22;9716;53.114;18.040;2022-07-29T13:37:57;27.00;60.10
19168;DHT22;9716;53.114;18.040;2022-07-29T13:40:25;27.10;60.40
19168;DHT22;9716;53.114;18.040;2022-07-29T13:42:57;27.20;60.20
19168;DHT22;9716;53.114;18.040;2022-07-29T13:45:26;27.20;60.20
19168;DHT22;9716;53.114;18.040;2022-07-29T13:47:55;27.30;60.00
19168;DHT22;9716;53.114;18.040;2022-07-29T13:50:24;27.30;60.00
19168;DHT22;9716;53.114;18.040;2022-07-29T13:52:52;27.30;60.20
19168;DHT22;9716;53.114;18.040;2022-07-29T13:55:21;27.30;60.40
19168;DHT22;9716;53.114;18.040;2022-07-29T13:57:49;27.30;60.50
19168;DHT22;9716;53.114;18.040;2022-07-29T14:00:20;27.30;60.40
19168;DHT22;9716;53.114;18.040;2022-07-29T14:02:50;27.30;60.40
19168;DHT22;9716;53.114;18.040;2022-07-29T14:05:19;27.30;60.20
19168;DHT22;9716;53.114;18.040;2022-07-29T14:07:48;27.30;60.20
19168;DHT22;9716;53.114;18.040;2022-07-29T14:10:16;27.20;60.40
19168;DHT22;9716;53.114;18.040;2022-07-29T14:12:46;27.20;60.60
19168;DHT22;9716;53.114;18.040;2022-07-29T14:15:15;27.20;60.10
19168;DHT22;9716;53.114;18.040;2022-07-29T14:17:45;27.10;60.20
19168;DHT22;9716;53.114;18.040;2022-07-29T14:20:14;27.10;60.50
19168;DHT22;9716;53.114;18.040;2022-07-29T14:22:43;27.10;60.40
19168;DHT22;9716;53.114;18.040;2022-07-29T14:25:12;27.20;60.10
19168;DHT22;9716;53.114;18.040;2022-07-29T14:27:42;27.20;60.20
19168;DHT22;9716;53.114;18.040;2022-07-29T14:30:11;27.20;60.00
19168;DHT22;9716;53.114;18.040;2022-07-29T14:32:40;27.20;60.10
19168;DHT22;9716;53.114;18.040;2022-07-29T14:35:11;27.20;59.90
19168;DHT22;9716;53.114;18.040;2022-07-29T14:37:39;27.30;59.60
19168;DHT22;9716;53.114;18.040;2022-07-29T14:40:10;27.30;59.80
19168;DHT22;9716;53.114;18.040;2022-07-29T14:42:39;27.20;59.60
19168;DHT22;9716;53.114;18.040;2022-07-29T14:45:09;27.20;59.50
19168;DHT22;9716;53.114;18.040;2022-07-29T14:47:38;27.10;59.40
19168;DHT22;9716;53.114;18.040;2022-07-29T14:50:08;27.00;59.70
19168;DHT22;9716;53.114;18.040;2022-07-29T14:52:38;27.00;59.80
19168;DHT22;9716;53.114;18.040;2022-07-29T14:55:07;27.00;59.80
19168;DHT22;9716;53.114;18.040;2022-07-29T14:57:47;27.00;59.80
19168;DHT22;9716;53.114;18.040;2022-07-29T15:00:17;27.00;59.70
19168;DHT22;9716;53.114;18.040;2022-07-29T15:02:47;27.00;59.70
19168;DHT22;9716;53.114;18.040;2022-07-29T15:05:28;27.00;59.70
19168;DHT22;9716;53.114;18.040;2022-07-29T15:07:59;26.90;59.30
19168;DHT22;9716;53.114;18.040;2022-07-29T15:10:28;26.90;59.40
19168;DHT22;9716;53.114;18.040;2022-07-29T15:12:57;26.80;59.70
19168;DHT22;9716;53.114;18.040;2022-07-29T15:15:27;26.80;59.70
19168;DHT22;9716;53.114;18.040;2022-07-29T15:17:56;26.70;59.80
19168;DHT22;9716;53.114;18.040;2022-07-29T15:20:24;26.60;60.00
19168;DHT22;9716;53.114;18.040;2022-07-29T15:22:54;26.50;60.20
19168;DHT22;9716;53.114;18.040;2022-07-29T15:25:25;26.40;60.20
19168;DHT22;9716;53.114;18.040;2022-07-29T15:27:54;26.30;60.20
19168;DHT22;9716;53.114;18.040;2022-07-29T15:30:29;26.20;60.40
19168;DHT22;9716;53.114;18.040;2022-07-29T15:33:01;26.20;60.60
19168;DHT22;9716;53.114;18.040;2022-07-29T15:35:30;26.20;60.60
19168;DHT22;9716;53.114;18.040;2022-07-29T15:38:06;26.20;60.60
19168;DHT22;9716;53.114;18.040;2022-07-29T15:40:38;26.30;60.50
19168;DHT22;9716;53.114;18.040;2022-07-29T15:43:08;26.30;60.20
19168;DHT22;9716;53.114;18.040;2022-07-29T15:45:37;26.30;60.40
19168;DHT22;9716;53.114;18.040;2022-07-29T15:48:08;26.30;60.60
19168;DHT22;9716;53.114;18.040;2022-07-29T15:50:41;26.30;60.40
19168;DHT22;9716;53.114;18.040;2022-07-29T15:53:13;26.30;60.70
19168;DHT22;9716;53.114;18.040;2022-07-29T15:55:43;26.20;61.00
19168;DHT22;9716;53.114;18.040;2022-07-29T15:58:12;26.20;61.20
19168;DHT22;9716;53.114;18.040;2022-07-29T16:00:41;26.20;61.40
19168;DHT22;9716;53.114;18.040;2022-07-29T16:03:10;26.20;61.20
19168;DHT22;9716;53.114;18.040;2022-07-29T16:05:38;26.10;61.20
19168;DHT22;9716;53.114;18.040;2022-07-29T16:08:07;26.10;61.30